sensor_id;sensor_type;location;lat;lon;timestamp;temperature;humidity
26272;DHT22;13997;48.902;12.472;2023-04-24T00:01:39;307.50;2304.00
26272;DHT22;13997;48.902;12.472;2023-04-24T00:04:06;307.50;2304.00
26272;DHT22;13997;48.902;12.472;2023-04-24T00:06:32;307.50;2304.00
26272;DHT22;13997;48.902;12.472;2023-04-24T00:09:00;307.40;2304.00
26272;DHT22;13997;48.902;12.472;2023-04-24T00:11:26;307.40;2304.00
26272;DHT22;13997;48.902;12.472;2023-04-24T00:13:52;307.40;2304.00
26272;DHT22;13997;48.902;12.472;2023-04-24T00:16:18;307.40;2304.00
26272;DHT22;13997;48.902;12.472;2023-04-24T00:18:43;307.40;2304.00
26272;DHT22;13997;48.902;12.472;2023-04-24T00:21:10;307.40;2304.00
26272;DHT22;13997;48.902;12.472;2023-04-24T00:23:36;307.40;2304.00
26272;DHT22;13997;48.902;12.472;2023-04-24T00:26:02;307.40;2304.00
26272;DHT22;13997;48.902;12.472;2023-04-24T00:28:28;307.40;2304.00
26272;DHT22;13997;48.902;12.472;2023-04-24T00:30:53;307.40;2304.00
26272;DHT22;13997;48.902;12.472;2023-04-24T00:33:19;307.40;2304.00
26272;DHT22;13997;48.902;12.472;2023-04-24T00:35:45;307.40;2304.00
26272;DHT22;13997;48.902;12.472;2023-04-24T00:38:11;307.50;2304.00
26272;DHT22;13997;48.902;12.472;2023-04-24T00:40:36;307.50;2304.00
26272;DHT22;13997;48.902;12.472;2023-04-24T00:43:02;307.50;2304.00
26272;DHT22;13997;48.902;12.472;2023-04-24T00:45:28;307.50;2304.00
26272;DHT22;13997;48.902;12.472;2023-04-24T00:47:54;307.50;2304.00
26272;DHT22;13997;48.902;12.472;2023-04-24T00:50:21;307.50;2304.00
26272;DHT22;13997;48.902;12.472;2023-04-24T00:52:46;307.50;2304.00
26272;DHT22;13997;48.902;12.472;2023-04-24T00:55:12;307.50;2304.00
26272;DHT22;13997;48.902;12.472;2023-04-24T00:57:38;307.50;2304.00
26272;DHT22;13997;48.902;12.472;2023-04-24T01:00:05;307.50;2304.00
26272;DHT22;13997;48.902;12.472;2023-04-24T01:02:33;307.50;2304.00
26272;DHT22;13997;48.902;12.472;2023-04-24T01:05:00;307.50;2304.00
26272;DHT22;13997;48.902;12.472;2023-04-24T01:07:26;307.50;2304.00
26272;DHT22;13997;48.902;12.472;2023-04-24T01:09:52;307.50;2304.00
26272;DHT22;13997;48.902;12.472;2023-04-24T01:12:18;307.50;2304.00
26272;DHT22;13997;48.902;12.472;2023-04-24T01:14:44;307.50;2304.00
26272;DHT22;13997;48.902;12.472;2023-04-24T01:17:10;307.50;2304.00
26272;DHT22;13997;48.902;12.472;2023-04-24T01:19:36;307.60;2304.00
26272;DHT22;13997;48.902;12.472;2023-04-24T01:22:02;307.60;2304.00
26272;DHT22;13997;48.902;12.472;2023-04-24T01:24:29;307.60;2304.00
26272;DHT22;13997;48.902;12.472;2023-04-24T01:26:55;307.60;2304.00
26272;DHT22;13997;48.902;12.472;2023-04-24T01:29:21;307.60;2304.00
26272;DHT22;13997;48.902;12.472;2023-04-24T01:31:47;307.70;2304.00
26272;DHT22;13997;48.902;12.472;2023-04-24T01:34:12;307.60;2304.00
26272;DHT22;13997;48.902;12.472;2023-04-24T01:36:39;307.60;2304.00
26272;DHT22;13997;48.902;12.472;2023-04-24T01:39:05;307.70;2304.00
26272;DHT22;13997;48.902;12.472;2023-04-24T01:41:32;307.60;2304.00
26272;DHT22;13997;48.902;12.472;2023-04-24T01:43:58;307.70;2304.00
26272;DHT22;13997;48.902;12.472;2023-04-24T01:46:24;307.70;2304.00
26272;DHT22;13997;48.902;12.472;2023-04-24T01:48:51;307.70;2304.00
26272;DHT22;13997;48.902;12.472;2023-04-24T01:51:17;307.70;2304.00
26272;DHT22;13997;48.902;12.472;2023-04-24T01:53:42;307.70;2304.00
26272;DHT22;13997;48.902;12.472;2023-04-24T01:56:08;307.70;2304.00
26272;DHT22;13997;48.902;12.472;2023-04-24T01:58:34;307.70;2304.00
26272;DHT22;13997;48.902;12.472;2023-04-24T02:01:00;307.70;2304.00
26272;DHT22;13997;48.902;12.472;2023-04-24T02:03:26;307.70;2304.00
26272;DHT22;13997;48.902;12.472;2023-04-24T02:05:52;307.70;2304.00
26272;DHT22;13997;48.902;12.472;2023-04-24T02:08:17;307.70;2304.00
26272;DHT22;13997;48.902;12.472;2023-04-24T02:10:43;307.70;2304.00
26272;DHT22;13997;48.902;12.472;2023-04-24T02:13:09;307.70;2304.00
26272;DHT22;13997;48.902;12.472;2023-04-24T02:15:35;307.70;2304.00
26272;DHT22;13997;48.902;12.472;2023-04-24T02:18:01;307.70;2304.00
26272;DHT22;13997;48.902;12.472;2023-04-24T02:20:27;307.60;2304.00
26272;DHT22;13997;48.902;12.472;2023-04-24T02:22:52;307.60;2304.00
26272;DHT22;13997;48.902;12.472;2023-04-24T02:25:18;307.60;2304.00
26272;DHT22;13997;48.902;12.472;2023-04-24T02:27:44;307.60;2304.00
26272;DHT22;13997;48.902;12.472;2023-04-24T02:30:10;307.60;2304.00
26272;DHT22;13997;48.902;12.472;2023-04-24T02:32:35;307.60;2304.00
26272;DHT22;13997;48.902;12.472;2023-04-24T02:35:01;307.60;2304.00
26272;DHT22;13997;48.902;12.472;2023-04-24T02:37:26;307.50;2304.00
26272;DHT22;13997;48.902;12.472;2023-04-24T02:39:52;307.50;2304.00
26272;DHT22;13997;48.902;12.472;2023-04-24T02:42:17;307.50;2304.00
26272;DHT22;13997;48.902;12.472;2023-04-24T02:44:43;307.50;2304.00
26272;DHT22;13997;48.902;12.472;2023-04-24T02:47:08;307.50;2304.00
26272;DHT22;13997;48.902;12.472;2023-04-24T02:49:34;307.50;2304.00
26272;DHT22;13997;48.902;12.472;2023-04-24T02:52:00;307.50;2304.00
26272;DHT22;13997;48.902;12.472;2023-04-24T02:54:25;307.50;2304.00
26272;DHT22;13997;48.902;12.472;2023-04-24T02:56:51;307.50;2304.00
26272;DHT22;13997;48.902;12.472;2023-04-24T02:59:16;307.50;2304.00
26272;DHT22;13997;48.902;12.472;2023-04-24T03:01:42;307.50;2304.00
26272;DHT22;13997;48.902;12.472;2023-04-24T03:04:08;307.50;2304.00
26272;DHT22;13997;48.902;12.472;2023-04-24T03:06:33;307.40;2304.00
26272;DHT22;13997;48.902;12.472;2023-04-24T03:09:00;307.40;2304.00
26272;DHT22;13997;48.902;12.472;2023-04-24T03:11:26;307.40;2304.00
26272;DHT22;13997;48.902;12.472;2023-04-24T03:13:51;307.40;2304.00
26272;DHT22;13997;48.902;12.472;2023-04-24T03:16:17;307.40;2304.00
26272;DHT22;13997;48.902;12.472;2023-04-24T03:18:42;307.40;2304.00
26272;DHT22;13997;48.902;12.472;2023-04-24T03:21:08;307.40;2304.00
26272;DHT22;13997;48.902;12.472;2023-04-24T03:23:34;307.40;2304.00
26272;DHT22;13997;48.902;12.472;2023-04-24T03:25:59;307.40;2304.00
26272;DHT22;13997;48.902;12.472;2023-04-24T03:28:25;307.30;2304.00
26272;DHT22;13997;48.902;12.472;2023-04-24T03:30:51;307.30;2304.00
26272;DHT22;13997;48.902;12.472;2023-04-24T03:33:17;307.30;2304.00
26272;DHT22;13997;48.902;12.472;2023-04-24T03:35:43;307.30;2304.00
26272;DHT22;13997;48.902;12.472;2023-04-24T03:38:08;307.30;2304.00
26272;DHT22;13997;48.902;12.472;2023-04-24T03:40:34;307.30;2304.00
26272;DHT22;13997;48.902;12.472;2023-04-24T03:42:59;307.30;2304.00
26272;DHT22;13997;48.902;12.472;2023-04-24T03:45:25;307.30;2304.00
26272;DHT22;13997;48.902;12.472;2023-04-24T03:47:51;307.20;2304.00
26272;DHT22;13997;48.902;12.472;2023-04-24T03:50:16;307.20;2304.00
26272;DHT22;13997;48.902;12.472;2023-04-24T03:52:42;307.20;2304.00
26272;DHT22;13997;48.902;12.472;2023-04-24T03:55:07;307.20;2304.00
26272;DHT22;13997;48.902;12.472;2023-04-24T03:57:33;307.20;2304.00
26272;DHT22;13997;48.902;12.472;2023-04-24T03:59:58;307.20;2304.00
26272;DHT22;13997;48.902;12.472;2023-04-24T04:02:25;307.20;2304.00
26272;DHT22;13997;48.902;12.472;2023-04-24T04:04:50;307.20;2304.00
26272;DHT22;13997;48.902;12.472;2023-04-24T04:07:17;307.20;2304.00
26272;DHT22;13997;48.902;12.472;2023-04-24T04:09:42;307.20;2304.00
26272;DHT22;13997;48.902;12.472;2023-04-24T04:12:08;307.20;2304.00
26272;DHT22;13997;48.902;12.472;2023-04-24T04:14:33;307.20;2304.00
26272;DHT22;13997;48.902;12.472;2023-04-24T04:16:59;307.20;2304.00
26272;DHT22;13997;48.902;12.472;2023-04-24T04:19:24;307.20;2304.00
26272;DHT22;13997;48.902;12.472;2023-04-24T04:21:50;282.50;2278.40
26272;DHT22;13997;48.902;12.472;2023-04-24T04:24:19;282.50;2278.40
26272;DHT22;13997;48.902;12.472;2023-04-24T04:26:46;282.50;2278.40
26272;DHT22;13997;48.902;12.472;2023-04-24T04:29:13;282.50;2278.40
26272;DHT22;13997;48.902;12.472;2023-04-24T04:31:38;282.50;2278.40
26272;DHT22;13997;48.902;12.472;2023-04-24T04:34:04;282.50;2278.40
26272;DHT22;13997;48.902;12.472;2023-04-24T04:36:29;282.50;2278.40
26272;DHT22;13997;48.902;12.472;2023-04-24T04:38:55;282.40;2278.40
26272;DHT22;13997;48.902;12.472;2023-04-24T04:41:22;282.40;2278.40
26272;DHT22;13997;48.902;12.472;2023-04-24T04:43:47;282.40;2278.40
26272;DHT22;13997;48.902;12.472;2023-04-24T04:46:13;282.40;2278.40
26272;DHT22;13997;48.902;12.472;2023-04-24T04:48:39;282.40;2278.40
26272;DHT22;13997;48.902;12.472;2023-04-24T04:51:05;282.40;2278.40
26272;DHT22;13997;48.902;12.472;2023-04-24T04:53:30;282.40;2278.40
26272;DHT22;13997;48.902;12.472;2023-04-24T04:55:56;282.40;2278.40
26272;DHT22;13997;48.902;12.472;2023-04-24T04:58:22;282.40;2278.40
26272;DHT22;13997;48.902;12.472;2023-04-24T05:00:47;282.40;2278.40
26272;DHT22;13997;48.902;12.472;2023-04-24T05:03:13;282.40;2278.40
26272;DHT22;13997;48.902;12.472;2023-04-24T05:05:39;282.40;2278.40
26272;DHT22;13997;48.902;12.472;2023-04-24T05:08:07;282.40;2278.40
26272;DHT22;13997;48.902;12.472;2023-04-24T05:10:32;282.40;2278.40
26272;DHT22;13997;48.902;12.472;2023-04-24T05:12:58;282.40;2278.40
26272;DHT22;13997;48.902;12.472;2023-04-24T05:15:23;282.40;2278.40
26272;DHT22;13997;48.902;12.472;2023-04-24T05:17:49;282.40;2278.40
26272;DHT22;13997;48.902;12.472;2023-04-24T05:20:15;282.40;2278.40
26272;DHT22;13997;48.902;12.472;2023-04-24T05:22:40;282.40;2278.40
26272;DHT22;13997;48.902;12.472;2023-04-24T05:25:06;282.30;2278.40
26272;DHT22;13997;48.902;12.472;2023-04-24T05:27:33;282.30;2278.40
26272;DHT22;13997;48.902;12.472;2023-04-24T05:29:58;282.30;2278.40
26272;DHT22;13997;48.902;12.472;2023-04-24T05:32:24;282.40;2278.40
26272;DHT22;13997;48.902;12.472;2023-04-24T05:34:49;282.30;2278.40
26272;DHT22;13997;48.902;12.472;2023-04-24T05:37:15;282.40;2278.40
26272;DHT22;13997;48.902;12.472;2023-04-24T05:39:41;282.40;2278.40
26272;DHT22;13997;48.902;12.472;2023-04-24T05:42:06;282.40;2278.40
26272;DHT22;13997;48.902;12.472;2023-04-24T05:44:32;282.40;2278.40
26272;DHT22;13997;48.902;12.472;2023-04-24T05:46:58;282.40;2278.40
26272;DHT22;13997;48.902;12.472;2023-04-24T05:49:23;282.40;2278.40
26272;DHT22;13997;48.902;12.472;2023-04-24T05:51:49;282.40;2278.40
26272;DHT22;13997;48.902;12.472;2023-04-24T05:54:15;282.40;2278.40
26272;DHT22;13997;48.902;12.472;2023-04-24T05:56:40;282.30;2278.40
26272;DHT22;13997;48.902;12.472;2023-04-24T05:59:06;282.30;2278.40
26272;DHT22;13997;48.902;12.472;2023-04-24T06:01:33;282.30;2278.40
26272;DHT22;13997;48.902;12.472;2023-04-24T06:03:58;282.20;2278.40
26272;DHT22;13997;48.902;12.472;2023-04-24T06:06:24;282.20;2278.40
26272;DHT22;13997;48.902;12.472;2023-04-24T06:08:51;282.20;2278.40
26272;DHT22;13997;48.902;12.472;2023-04-24T06:11:16;282.20;2278.40
26272;DHT22;13997;48.902;12.472;2023-04-24T06:13:42;282.20;2278.40
26272;DHT22;13997;48.902;12.472;2023-04-24T06:16:08;282.20;2278.40
26272;DHT22;13997;48.902;12.472;2023-04-24T06:18:33;282.20;2278.40
26272;DHT22;13997;48.902;12.472;2023-04-24T06:20:59;282.20;2278.40
26272;DHT22;13997;48.902;12.472;2023-04-24T06:23:24;282.20;2278.40
26272;DHT22;13997;48.902;12.472;2023-04-24T06:25:50;282.20;2278.40
26272;DHT22;13997;48.902;12.472;2023-04-24T06:28:16;282.20;2278.40
26272;DHT22;13997;48.902;12.472;2023-04-24T06:30:42;282.20;2278.40
26272;DHT22;13997;48.902;12.472;2023-04-24T06:33:08;282.30;2278.40
26272;DHT22;13997;48.902;12.472;2023-04-24T06:35:34;282.30;2278.40
26272;DHT22;13997;48.902;12.472;2023-04-24T06:37:59;282.30;2278.40
26272;DHT22;13997;48.902;12.472;2023-04-24T06:40:25;282.40;2278.40
26272;DHT22;13997;48.902;12.472;2023-04-24T06:42:51;282.40;2278.40
26272;DHT22;13997;48.902;12.472;2023-04-24T06:45:17;282.40;2278.40
26272;DHT22;13997;48.902;12.472;2023-04-24T06:47:42;282.50;2278.40
26272;DHT22;13997;48.902;12.472;2023-04-24T06:50:08;282.50;2278.40
26272;DHT22;13997;48.902;12.472;2023-04-24T06:52:34;307.20;2304.00
26272;DHT22;13997;48.902;12.472;2023-04-24T06:55:02;307.20;2304.00
26272;DHT22;13997;48.902;12.472;2023-04-24T06:57:28;307.20;2304.00
26272;DHT22;13997;48.902;12.472;2023-04-24T06:59:54;307.20;2304.00
26272;DHT22;13997;48.902;12.472;2023-04-24T07:02:19;307.30;2304.00
26272;DHT22;13997;48.902;12.472;2023-04-24T07:04:45;307.20;2304.00
26272;DHT22;13997;48.902;12.472;2023-04-24T07:07:12;307.30;2304.00
26272;DHT22;13997;48.902;12.472;2023-04-24T07:09:39;307.30;2304.00
26272;DHT22;13997;48.902;12.472;2023-04-24T07:12:08;307.40;2304.00
26272;DHT22;13997;48.902;12.472;2023-04-24T07:14:34;307.50;2304.00
26272;DHT22;13997;48.902;12.472;2023-04-24T07:17:00;307.50;2304.00
26272;DHT22;13997;48.902;12.472;2023-04-24T07:19:26;307.50;2304.00
26272;DHT22;13997;48.902;12.472;2023-04-24T07:21:52;307.60;2304.00
26272;DHT22;13997;48.902;12.472;2023-04-24T07:24:18;307.60;2304.00
26272;DHT22;13997;48.902;12.472;2023-04-24T07:26:44;307.60;2304.00
26272;DHT22;13997;48.902;12.472;2023-04-24T07:29:12;307.60;2304.00
26272;DHT22;13997;48.902;12.472;2023-04-24T07:31:38;307.70;2304.00
26272;DHT22;13997;48.902;12.472;2023-04-24T07:34:04;307.70;2304.00
26272;DHT22;13997;48.902;12.472;2023-04-24T07:36:29;307.70;2304.00
26272;DHT22;13997;48.902;12.472;2023-04-24T07:38:55;307.70;2304.00
26272;DHT22;13997;48.902;12.472;2023-04-24T07:41:22;307.80;2304.00
26272;DHT22;13997;48.902;12.472;2023-04-24T07:43:49;307.80;2304.00
26272;DHT22;13997;48.902;12.472;2023-04-24T07:46:15;307.80;2304.00
26272;DHT22;13997;48.902;12.472;2023-04-24T07:48:40;307.80;2304.00
26272;DHT22;13997;48.902;12.472;2023-04-24T07:51:06;307.80;2304.00
26272;DHT22;13997;48.902;12.472;2023-04-24T07:53:31;307.90;2304.00
26272;DHT22;13997;48.902;12.472;2023-04-24T07:55:58;308.00;2304.00
26272;DHT22;13997;48.902;12.472;2023-04-24T07:58:24;308.00;2304.00
26272;DHT22;13997;48.902;12.472;2023-04-24T08:00:49;308.00;2304.00
26272;DHT22;13997;48.902;12.472;2023-04-24T08:03:15;308.10;2304.00
26272;DHT22;13997;48.902;12.472;2023-04-24T08:05:43;308.10;2304.00
26272;DHT22;13997;48.902;12.472;2023-04-24T08:08:09;308.10;2304.00
26272;DHT22;13997;48.902;12.472;2023-04-24T08:10:34;332.80;2329.60
26272;DHT22;13997;48.902;12.472;2023-04-24T08:13:00;332.80;2329.60
26272;DHT22;13997;48.902;12.472;2023-04-24T08:15:27;332.90;2329.60
26272;DHT22;13997;48.902;12.472;2023-04-24T08:17:53;332.90;2329.60
26272;DHT22;13997;48.902;12.472;2023-04-24T08:20:18;332.90;2329.60
26272;DHT22;13997;48.902;12.472;2023-04-24T08:22:44;332.80;2329.60
26272;DHT22;13997;48.902;12.472;2023-04-24T08:25:12;308.10;2304.00
26272;DHT22;13997;48.902;12.472;2023-04-24T08:27:38;308.10;2304.00
26272;DHT22;13997;48.902;12.472;2023-04-24T08:30:05;308.00;2304.00
26272;DHT22;13997;48.902;12.472;2023-04-24T08:32:31;308.00;2304.00
26272;DHT22;13997;48.902;12.472;2023-04-24T08:34:57;308.00;2304.00
26272;DHT22;13997;48.902;12.472;2023-04-24T08:37:23;307.90;2304.00
26272;DHT22;13997;48.902;12.472;2023-04-24T08:39:49;307.90;2304.00
26272;DHT22;13997;48.902;12.472;2023-04-24T08:42:17;308.00;2304.00
26272;DHT22;13997;48.902;12.472;2023-04-24T08:44:43;308.10;2304.00
26272;DHT22;13997;48.902;12.472;2023-04-24T08:47:10;332.80;2329.60
26272;DHT22;13997;48.902;12.472;2023-04-24T08:49:37;332.90;2329.60
26272;DHT22;13997;48.902;12.472;2023-04-24T08:52:03;333.00;2329.60
26272;DHT22;13997;48.902;12.472;2023-04-24T08:54:31;333.10;2329.60
26272;DHT22;13997;48.902;12.472;2023-04-24T08:57:00;333.40;2329.60
26272;DHT22;13997;48.902;12.472;2023-04-24T08:59:27;333.40;2329.60
26272;DHT22;13997;48.902;12.472;2023-04-24T09:01:53;333.60;2329.60
26272;DHT22;13997;48.902;12.472;2023-04-24T09:04:20;358.50;2329.60
26272;DHT22;13997;48.902;12.472;2023-04-24T09:06:48;358.80;2329.60
26272;DHT22;13997;48.902;12.472;2023-04-24T09:09:16;359.00;2329.60
26272;DHT22;13997;48.902;12.472;2023-04-24T09:11:42;359.10;2329.60
26272;DHT22;13997;48.902;12.472;2023-04-24T09:14:09;359.00;2329.60
26272;DHT22;13997;48.902;12.472;2023-04-24T09:16:35;359.00;2329.60
26272;DHT22;13997;48.902;12.472;2023-04-24T09:19:01;358.70;2329.60
26272;DHT22;13997;48.902;12.472;2023-04-24T09:21:32;333.70;2329.60
26272;DHT22;13997;48.902;12.472;2023-04-24T09:24:05;333.10;2329.60
26272;DHT22;13997;48.902;12.472;2023-04-24T09:26:33;308.10;2304.00
26272;DHT22;13997;48.902;12.472;2023-04-24T09:29:00;307.70;2304.00
26272;DHT22;13997;48.902;12.472;2023-04-24T09:31:27;307.30;2304.00
26272;DHT22;13997;48.902;12.472;2023-04-24T09:33:58;282.50;2278.40
26272;DHT22;13997;48.902;12.472;2023-04-24T09:36:34;282.40;2278.40
26272;DHT22;13997;48.902;12.472;2023-04-24T09:39:01;282.40;2278.40
26272;DHT22;13997;48.902;12.472;2023-04-24T09:41:27;282.30;2278.40
26272;DHT22;13997;48.902;12.472;2023-04-24T09:43:54;282.40;2278.40
26272;DHT22;13997;48.902;12.472;2023-04-24T09:46:20;282.40;2278.40
26272;DHT22;13997;48.902;12.472;2023-04-24T09:48:47;282.50;2278.40
26272;DHT22;13997;48.902;12.472;2023-04-24T09:51:13;307.30;2304.00
26272;DHT22;13997;48.902;12.472;2023-04-24T09:56:11;307.70;2304.00
26272;DHT22;13997;48.902;12.472;2023-04-24T09:58:38;308.10;2304.00
26272;DHT22;13997;48.902;12.472;2023-04-24T10:01:04;333.00;2329.60
26272;DHT22;13997;48.902;12.472;2023-04-24T10:03:31;333.20;2329.60
26272;DHT22;13997;48.902;12.472;2023-04-24T10:06:01;333.50;2329.60
26272;DHT22;13997;48.902;12.472;2023-04-24T10:08:33;333.70;2329.60
26272;DHT22;13997;48.902;12.472;2023-04-24T10:11:00;358.70;2329.60
26272;DHT22;13997;48.902;12.472;2023-04-24T10:13:26;359.00;2329.60
26272;DHT22;13997;48.902;12.472;2023-04-24T10:15:53;359.20;2329.60
26272;DHT22;13997;48.902;12.472;2023-04-24T10:18:20;359.20;2329.60
26272;DHT22;13997;48.902;12.472;2023-04-24T10:20:46;384.00;2329.60
26272;DHT22;13997;48.902;12.472;2023-04-24T10:23:12;384.10;2329.60
26272;DHT22;13997;48.902;12.472;2023-04-24T10:25:38;384.10;2329.60
26272;DHT22;13997;48.902;12.472;2023-04-24T10:28:04;384.20;2329.60
26272;DHT22;13997;48.902;12.472;2023-04-24T10:30:32;384.20;2329.60
26272;DHT22;13997;48.902;12.472;2023-04-24T10:33:01;384.10;2329.60
26272;DHT22;13997;48.902;12.472;2023-04-24T10:35:30;384.10;2329.60
26272;DHT22;13997;48.902;12.472;2023-04-24T10:38:08;384.00;2329.60
26272;DHT22;13997;48.902;12.472;2023-04-24T10:40:35;384.00;2329.60
26272;DHT22;13997;48.902;12.472;2023-04-24T10:43:05;384.00;2329.60
26272;DHT22;13997;48.902;12.472;2023-04-24T10:45:33;384.00;2329.60
26272;DHT22;13997;48.902;12.472;2023-04-24T10:48:01;384.00;2329.60
26272;DHT22;13997;48.902;12.472;2023-04-24T10:50:44;384.10;2329.60
26272;DHT22;13997;48.902;12.472;2023-04-24T10:53:21;384.10;2329.60
26272;DHT22;13997;48.902;12.472;2023-04-24T10:55:50;384.20;2329.60
26272;DHT22;13997;48.902;12.472;2023-04-24T10:58:23;384.20;2329.60
26272;DHT22;13997;48.902;12.472;2023-04-24T11:00:59;384.40;2329.60
26272;DHT22;13997;48.902;12.472;2023-04-24T11:03:33;384.70;2329.60
26272;DHT22;13997;48.902;12.472;2023-04-24T11:06:03;384.70;2329.60
26272;DHT22;13997;48.902;12.472;2023-04-24T11:08:38;384.40;2329.60
26272;DHT22;13997;48.902;12.472;2023-04-24T11:11:10;384.40;2329.60
26272;DHT22;13997;48.902;12.472;2023-04-24T11:19:07;409.60;2355.20
26272;DHT22;13997;48.902;12.472;2023-04-24T11:21:43;384.80;2329.60
26272;DHT22;13997;48.902;12.472;2023-04-24T11:24:29;384.50;2329.60
26272;DHT22;13997;48.902;12.472;2023-04-24T11:26:59;384.30;2329.60
26272;DHT22;13997;48.902;12.472;2023-04-24T11:29:40;384.20;2329.60
26272;DHT22;13997;48.902;12.472;2023-04-24T11:35:16;384.50;2329.60
26272;DHT22;13997;48.902;12.472;2023-04-24T11:37:44;384.80;2329.60
26272;DHT22;13997;48.902;12.472;2023-04-24T11:40:12;384.90;2329.60
26272;DHT22;13997;48.902;12.472;2023-04-24T11:42:49;384.90;2329.60
26272;DHT22;13997;48.902;12.472;2023-04-24T11:45:17;384.90;2329.60
26272;DHT22;13997;48.902;12.472;2023-04-24T11:47:43;409.80;2355.20
26272;DHT22;13997;48.902;12.472;2023-04-24T11:50:12;409.90;2355.20
26272;DHT22;13997;48.902;12.472;2023-04-24T11:52:42;410.20;2355.20
26272;DHT22;13997;48.902;12.472;2023-04-24T11:57:50;409.90;2355.20
26272;DHT22;13997;48.902;12.472;2023-04-24T12:00:20;384.90;2329.60
26272;DHT22;13997;48.902;12.472;2023-04-24T12:02:48;384.50;2329.60
26272;DHT22;13997;48.902;12.472;2023-04-24T12:05:26;384.10;2329.60
26272;DHT22;13997;48.902;12.472;2023-04-24T12:07:52;358.60;2329.60
26272;DHT22;13997;48.902;12.472;2023-04-24T12:10:22;333.40;2329.60
26272;DHT22;13997;48.902;12.472;2023-04-24T12:12:48;333.00;2329.60
26272;DHT22;13997;48.902;12.472;2023-04-24T12:15:16;332.90;2329.60
26272;DHT22;13997;48.902;12.472;2023-04-24T12:17:42;308.10;2304.00
26272;DHT22;13997;48.902;12.472;2023-04-24T12:20:10;308.00;2304.00
26272;DHT22;13997;48.902;12.472;2023-04-24T12:22:53;307.90;2304.00
26272;DHT22;13997;48.902;12.472;2023-04-24T12:25:21;307.80;2304.00
26272;DHT22;13997;48.902;12.472;2023-04-24T12:30:28;307.90;2304.00
26272;DHT22;13997;48.902;12.472;2023-04-24T12:32:57;308.10;2304.00
26272;DHT22;13997;48.902;12.472;2023-04-24T12:35:25;332.80;2329.60
26272;DHT22;13997;48.902;12.472;2023-04-24T12:37:51;332.90;2329.60
26272;DHT22;13997;48.902;12.472;2023-04-24T12:40:18;333.10;2329.60
26272;DHT22;13997;48.902;12.472;2023-04-24T12:42:48;333.40;2329.60
26272;DHT22;13997;48.902;12.472;2023-04-24T12:45:16;358.40;2329.60
26272;DHT22;13997;48.902;12.472;2023-04-24T12:47:42;358.60;2329.60
26272;DHT22;13997;48.902;12.472;2023-04-24T12:50:10;358.70;2329.60
26272;DHT22;13997;48.902;12.472;2023-04-24T12:52:36;358.90;2329.60
26272;DHT22;13997;48.902;12.472;2023-04-24T12:55:02;359.20;2329.60
26272;DHT22;13997;48.902;12.472;2023-04-24T12:57:30;359.30;2329.60
26272;DHT22;13997;48.902;12.472;2023-04-24T12:59:58;384.00;2329.60
26272;DHT22;13997;48.902;12.472;2023-04-24T13:02:28;384.00;2329.60
26272;DHT22;13997;48.902;12.472;2023-04-24T13:04:58;359.30;2329.60
26272;DHT22;13997;48.902;12.472;2023-04-24T13:07:24;359.20;2329.60
26272;DHT22;13997;48.902;12.472;2023-04-24T13:09:51;359.20;2329.60
26272;DHT22;13997;48.902;12.472;2023-04-24T13:12:17;359.20;2329.60
26272;DHT22;13997;48.902;12.472;2023-04-24T13:14:43;359.20;2329.60
26272;DHT22;13997;48.902;12.472;2023-04-24T13:17:09;359.10;2329.60
26272;DHT22;13997;48.902;12.472;2023-04-24T13:19:44;359.00;2329.60
26272;DHT22;13997;48.902;12.472;2023-04-24T13:22:11;358.80;2329.60
26272;DHT22;13997;48.902;12.472;2023-04-24T13:24:37;358.70;2329.60
26272;DHT22;13997;48.902;12.472;2023-04-24T13:27:05;358.70;2329.60
26272;DHT22;13997;48.902;12.472;2023-04-24T13:29:30;358.70;2329.60
26272;DHT22;13997;48.902;12.472;2023-04-24T13:31:56;358.60;2329.60
26272;DHT22;13997;48.902;12.472;2023-04-24T13:34:25;358.60;2329.60
26272;DHT22;13997;48.902;12.472;2023-04-24T13:36:53;358.70;2329.60
26272;DHT22;13997;48.902;12.472;2023-04-24T13:39:19;358.60;2329.60
26272;DHT22;13997;48.902;12.472;2023-04-24T13:41:44;358.70;2329.60
26272;DHT22;13997;48.902;12.472;2023-04-24T13:44:12;358.70;2329.60
26272;DHT22;13997;48.902;12.472;2023-04-24T13:46:38;358.70;2329.60
26272;DHT22;13997;48.902;12.472;2023-04-24T13:49:03;358.70;2329.60
26272;DHT22;13997;48.902;12.472;2023-04-24T13:51:29;358.50;2329.60
26272;DHT22;13997;48.902;12.472;2023-04-24T13:53:55;358.50;2329.60
26272;DHT22;13997;48.902;12.472;2023-04-24T13:56:21;358.40;2329.60
26272;DHT22;13997;48.902;12.472;2023-04-24T13:58:47;358.40;2329.60
26272;DHT22;13997;48.902;12.472;2023-04-24T14:01:13;358.40;2329.60
26272;DHT22;13997;48.902;12.472;2023-04-24T14:03:41;358.50;2329.60
26272;DHT22;13997;48.902;12.472;2023-04-24T14:06:08;358.60;2329.60
26272;DHT22;13997;48.902;12.472;2023-04-24T14:08:34;358.60;2329.60
26272;DHT22;13997;48.902;12.472;2023-04-24T14:10:59;358.60;2329.60
26272;DHT22;13997;48.902;12.472;2023-04-24T14:13:25;358.70;2329.60
26272;DHT22;13997;48.902;12.472;2023-04-24T14:15:51;358.70;2329.60
26272;DHT22;13997;48.902;12.472;2023-04-24T14:18:18;358.80;2329.60
26272;DHT22;13997;48.902;12.472;2023-04-24T14:20:44;358.90;2329.60
26272;DHT22;13997;48.902;12.472;2023-04-24T14:23:10;358.90;2329.60
26272;DHT22;13997;48.902;12.472;2023-04-24T14:25:35;359.00;2329.60
26272;DHT22;13997;48.902;12.472;2023-04-24T14:28:01;358.90;2329.60
26272;DHT22;13997;48.902;12.472;2023-04-24T14:30:27;358.80;2329.60
26272;DHT22;13997;48.902;12.472;2023-04-24T14:32:52;358.60;2329.60
26272;DHT22;13997;48.902;12.472;2023-04-24T14:35:18;358.50;2329.60
26272;DHT22;13997;48.902;12.472;2023-04-24T14:37:43;358.50;2329.60
26272;DHT22;13997;48.902;12.472;2023-04-24T14:40:09;358.50;2329.60
26272;DHT22;13997;48.902;12.472;2023-04-24T14:42:35;358.50;2329.60
26272;DHT22;13997;48.902;12.472;2023-04-24T14:45:01;358.50;2329.60
26272;DHT22;13997;48.902;12.472;2023-04-24T14:47:26;358.50;2329.60
26272;DHT22;13997;48.902;12.472;2023-04-24T14:49:52;358.60;2329.60